Terminal Aerodrome Forecast
Issued by NWS Melbourne, FL

Home | Current Version | Previous Version | Text Only | Print | Product List | Glossary On
Versions: 1 2 3 4 5 6 7 8 9 10 11 12 13 14 15 16
000
FTUS42 KMLB 311100
TAFMLB
TAF
KMLB 311128Z 3112/0112 17006KT P6SM SCT250
     FM311400 13005KT P6SM SCT025
     FM311700 10009KT P6SM VCTS BKN035CB
     FM312200 14007KT P6SM SCT040 BKN120
     FM010100 18006KT P6SM SCT060 BKN250=

USA.gov is the U.S. government's official web portal to all federal, state and local government web resources and services.